sensor_id;sensor_type;location;lat;lon;timestamp;P1;durP1;ratioP1;P2;durP2;ratioP2
58446;SDS011;44240;51.840;7.258;2024-01-10T00:01:56;3.67;;;2.20;;
58446;SDS011;44240;51.840;7.258;2024-01-10T00:04:23;5.72;;;2.55;;
58446;SDS011;44240;51.840;7.258;2024-01-10T00:06:50;6.63;;;2.95;;
58446;SDS011;44240;51.840;7.258;2024-01-10T00:09:17;5.00;;;2.65;;
58446;SDS011;44240;51.840;7.258;2024-01-10T00:11:43;5.07;;;2.78;;
58446;SDS011;44240;51.840;7.258;2024-01-10T00:14:10;9.30;;;3.10;;
58446;SDS011;44240;51.840;7.258;2024-01-10T00:16:37;5.53;;;2.70;;
58446;SDS011;44240;51.840;7.258;2024-01-10T00:19:04;5.22;;;2.60;;
58446;SDS011;44240;51.840;7.258;2024-01-10T00:21:31;5.45;;;2.63;;
58446;SDS011;44240;51.840;7.258;2024-01-10T00:23:58;4.20;;;2.60;;
58446;SDS011;44240;51.840;7.258;2024-01-10T00:26:24;6.70;;;2.53;;
58446;SDS011;44240;51.840;7.258;2024-01-10T00:28:51;4.10;;;2.70;;
58446;SDS011;44240;51.840;7.258;2024-01-10T00:31:18;5.07;;;2.42;;
58446;SDS011;44240;51.840;7.258;2024-01-10T00:33:45;5.82;;;2.45;;
58446;SDS011;44240;51.840;7.258;2024-01-10T00:36:12;6.03;;;2.95;;
58446;SDS011;44240;51.840;7.258;2024-01-10T00:38:38;6.88;;;2.70;;
58446;SDS011;44240;51.840;7.258;2024-01-10T00:41:05;5.63;;;2.63;;
58446;SDS011;44240;51.840;7.258;2024-01-10T00:43:32;6.43;;;3.35;;
58446;SDS011;44240;51.840;7.258;2024-01-10T00:45:59;4.82;;;2.83;;
58446;SDS011;44240;51.840;7.258;2024-01-10T00:48:26;4.53;;;2.65;;
58446;SDS011;44240;51.840;7.258;2024-01-10T00:50:52;6.88;;;3.00;;
58446;SDS011;44240;51.840;7.258;2024-01-10T00:53:19;5.03;;;2.70;;
58446;SDS011;44240;51.840;7.258;2024-01-10T00:55:46;4.18;;;2.38;;
58446;SDS011;44240;51.840;7.258;2024-01-10T00:58:13;6.13;;;3.08;;
58446;SDS011;44240;51.840;7.258;2024-01-10T01:00:39;6.10;;;2.90;;
58446;SDS011;44240;51.840;7.258;2024-01-10T01:03:06;8.27;;;2.83;;
58446;SDS011;44240;51.840;7.258;2024-01-10T01:05:33;6.50;;;3.50;;
58446;SDS011;44240;51.840;7.258;2024-01-10T01:08:00;9.02;;;3.25;;
58446;SDS011;44240;51.840;7.258;2024-01-10T01:10:27;5.95;;;3.05;;
58446;SDS011;44240;51.840;7.258;2024-01-10T01:12:53;6.78;;;3.08;;
58446;SDS011;44240;51.840;7.258;2024-01-10T01:15:21;5.15;;;3.00;;
58446;SDS011;44240;51.840;7.258;2024-01-10T01:17:48;4.57;;;2.15;;
58446;SDS011;44240;51.840;7.258;2024-01-10T01:20:14;6.15;;;3.17;;
58446;SDS011;44240;51.840;7.258;2024-01-10T01:22:41;6.38;;;3.25;;
58446;SDS011;44240;51.840;7.258;2024-01-10T01:25:08;6.63;;;2.72;;
58446;SDS011;44240;51.840;7.258;2024-01-10T01:27:35;5.30;;;2.53;;
58446;SDS011;44240;51.840;7.258;2024-01-10T01:30:02;5.45;;;2.50;;
58446;SDS011;44240;51.840;7.258;2024-01-10T01:32:29;8.93;;;3.38;;
58446;SDS011;44240;51.840;7.258;2024-01-10T01:34:56;7.10;;;2.58;;
58446;SDS011;44240;51.840;7.258;2024-01-10T01:37:23;6.30;;;3.15;;
58446;SDS011;44240;51.840;7.258;2024-01-10T01:39:50;6.78;;;3.30;;
58446;SDS011;44240;51.840;7.258;2024-01-10T01:42:17;7.07;;;2.83;;
58446;SDS011;44240;51.840;7.258;2024-01-10T01:44:43;7.88;;;3.30;;
58446;SDS011;44240;51.840;7.258;2024-01-10T01:47:10;4.28;;;2.70;;
58446;SDS011;44240;51.840;7.258;2024-01-10T01:49:37;7.15;;;2.65;;
58446;SDS011;44240;51.840;7.258;2024-01-10T01:52:05;5.65;;;2.85;;
58446;SDS011;44240;51.840;7.258;2024-01-10T01:54:33;5.68;;;3.30;;
58446;SDS011;44240;51.840;7.258;2024-01-10T01:57:00;5.72;;;2.95;;
58446;SDS011;44240;51.840;7.258;2024-01-10T01:59:27;4.05;;;2.35;;
58446;SDS011;44240;51.840;7.258;2024-01-10T02:01:55;4.90;;;3.13;;
58446;SDS011;44240;51.840;7.258;2024-01-10T02:04:24;6.32;;;2.88;;
58446;SDS011;44240;51.840;7.258;2024-01-10T02:06:52;8.38;;;2.97;;
58446;SDS011;44240;51.840;7.258;2024-01-10T02:09:19;7.75;;;3.00;;
58446;SDS011;44240;51.840;7.258;2024-01-10T02:11:46;9.88;;;3.05;;
58446;SDS011;44240;51.840;7.258;2024-01-10T02:14:12;4.60;;;2.72;;
58446;SDS011;44240;51.840;7.258;2024-01-10T02:16:39;5.57;;;3.30;;
58446;SDS011;44240;51.840;7.258;2024-01-10T02:19:22;5.38;;;2.72;;
58446;SDS011;44240;51.840;7.258;2024-01-10T02:21:49;5.32;;;2.78;;
58446;SDS011;44240;51.840;7.258;2024-01-10T02:24:16;5.63;;;2.85;;
58446;SDS011;44240;51.840;7.258;2024-01-10T02:26:43;6.25;;;3.20;;
58446;SDS011;44240;51.840;7.258;2024-01-10T02:29:11;6.88;;;3.28;;
58446;SDS011;44240;51.840;7.258;2024-01-10T02:31:38;5.40;;;2.80;;
58446;SDS011;44240;51.840;7.258;2024-01-10T02:34:05;6.15;;;2.78;;
58446;SDS011;44240;51.840;7.258;2024-01-10T02:36:31;4.45;;;2.40;;
58446;SDS011;44240;51.840;7.258;2024-01-10T02:38:58;5.25;;;2.58;;
58446;SDS011;44240;51.840;7.258;2024-01-10T02:41:25;7.05;;;3.20;;
58446;SDS011;44240;51.840;7.258;2024-01-10T02:43:53;6.80;;;2.63;;
58446;SDS011;44240;51.840;7.258;2024-01-10T02:46:25;6.95;;;2.20;;
58446;SDS011;44240;51.840;7.258;2024-01-10T02:48:54;5.85;;;2.70;;
58446;SDS011;44240;51.840;7.258;2024-01-10T02:51:22;6.45;;;3.08;;
58446;SDS011;44240;51.840;7.258;2024-01-10T02:53:48;8.43;;;2.92;;
58446;SDS011;44240;51.840;7.258;2024-01-10T02:56:15;4.97;;;2.40;;
58446;SDS011;44240;51.840;7.258;2024-01-10T02:58:42;5.28;;;2.72;;
58446;SDS011;44240;51.840;7.258;2024-01-10T03:01:09;4.90;;;2.97;;
58446;SDS011;44240;51.840;7.258;2024-01-10T03:03:36;5.50;;;3.10;;
58446;SDS011;44240;51.840;7.258;2024-01-10T03:06:02;5.93;;;2.65;;
58446;SDS011;44240;51.840;7.258;2024-01-10T03:08:29;4.80;;;2.95;;
58446;SDS011;44240;51.840;7.258;2024-01-10T03:10:56;6.45;;;3.05;;
58446;SDS011;44240;51.840;7.258;2024-01-10T03:13:23;6.55;;;2.50;;
58446;SDS011;44240;51.840;7.258;2024-01-10T03:15:49;6.75;;;2.90;;
58446;SDS011;44240;51.840;7.258;2024-01-10T03:18:16;6.13;;;2.65;;
58446;SDS011;44240;51.840;7.258;2024-01-10T03:20:43;5.00;;;2.92;;
58446;SDS011;44240;51.840;7.258;2024-01-10T03:23:10;8.95;;;3.08;;
58446;SDS011;44240;51.840;7.258;2024-01-10T03:25:36;6.60;;;3.00;;
58446;SDS011;44240;51.840;7.258;2024-01-10T03:28:03;6.95;;;2.65;;
58446;SDS011;44240;51.840;7.258;2024-01-10T03:30:30;7.07;;;3.35;;
58446;SDS011;44240;51.840;7.258;2024-01-10T03:32:57;7.57;;;2.70;;
58446;SDS011;44240;51.840;7.258;2024-01-10T03:35:24;5.32;;;2.75;;
58446;SDS011;44240;51.840;7.258;2024-01-10T03:37:51;6.35;;;2.90;;
58446;SDS011;44240;51.840;7.258;2024-01-10T03:40:17;8.95;;;3.47;;
58446;SDS011;44240;51.840;7.258;2024-01-10T03:42:44;7.35;;;3.53;;
58446;SDS011;44240;51.840;7.258;2024-01-10T03:45:11;5.97;;;2.78;;
58446;SDS011;44240;51.840;7.258;2024-01-10T03:47:38;6.18;;;3.10;;
58446;SDS011;44240;51.840;7.258;2024-01-10T03:50:04;7.57;;;2.88;;
58446;SDS011;44240;51.840;7.258;2024-01-10T03:52:33;6.38;;;2.97;;
58446;SDS011;44240;51.840;7.258;2024-01-10T03:54:59;8.00;;;3.58;;
58446;SDS011;44240;51.840;7.258;2024-01-10T03:57:26;6.13;;;3.13;;
58446;SDS011;44240;51.840;7.258;2024-01-10T03:59:53;8.95;;;3.25;;
58446;SDS011;44240;51.840;7.258;2024-01-10T04:02:19;8.85;;;3.47;;
58446;SDS011;44240;51.840;7.258;2024-01-10T04:04:46;7.65;;;3.55;;
58446;SDS011;44240;51.840;7.258;2024-01-10T04:07:13;6.78;;;3.70;;
58446;SDS011;44240;51.840;7.258;2024-01-10T04:09:40;8.63;;;3.13;;
58446;SDS011;44240;51.840;7.258;2024-01-10T04:12:07;6.72;;;3.33;;
58446;SDS011;44240;51.840;7.258;2024-01-10T04:14:33;7.05;;;3.10;;
58446;SDS011;44240;51.840;7.258;2024-01-10T04:17:00;7.60;;;3.30;;
58446;SDS011;44240;51.840;7.258;2024-01-10T04:19:27;8.48;;;3.28;;
58446;SDS011;44240;51.840;7.258;2024-01-10T04:21:54;4.65;;;2.63;;
58446;SDS011;44240;51.840;7.258;2024-01-10T04:24:21;8.40;;;4.15;;
58446;SDS011;44240;51.840;7.258;2024-01-10T04:26:48;6.53;;;3.40;;
58446;SDS011;44240;51.840;7.258;2024-01-10T04:29:14;7.00;;;3.25;;
58446;SDS011;44240;51.840;7.258;2024-01-10T04:31:41;8.02;;;4.00;;
58446;SDS011;44240;51.840;7.258;2024-01-10T04:34:08;6.45;;;2.90;;
58446;SDS011;44240;51.840;7.258;2024-01-10T04:36:35;6.78;;;2.92;;
58446;SDS011;44240;51.840;7.258;2024-01-10T04:39:02;6.80;;;3.63;;
58446;SDS011;44240;51.840;7.258;2024-01-10T04:41:28;8.00;;;3.83;;
58446;SDS011;44240;51.840;7.258;2024-01-10T04:43:55;7.43;;;3.10;;
58446;SDS011;44240;51.840;7.258;2024-01-10T04:46:23;9.05;;;4.63;;
58446;SDS011;44240;51.840;7.258;2024-01-10T04:48:50;10.20;;;4.68;;
58446;SDS011;44240;51.840;7.258;2024-01-10T04:51:18;6.20;;;3.55;;
58446;SDS011;44240;51.840;7.258;2024-01-10T04:53:44;8.50;;;3.80;;
58446;SDS011;44240;51.840;7.258;2024-01-10T04:56:11;6.10;;;3.60;;
58446;SDS011;44240;51.840;7.258;2024-01-10T04:58:38;8.02;;;3.63;;
58446;SDS011;44240;51.840;7.258;2024-01-10T05:01:05;8.95;;;3.60;;
58446;SDS011;44240;51.840;7.258;2024-01-10T05:03:32;7.93;;;3.15;;
58446;SDS011;44240;51.840;7.258;2024-01-10T05:05:59;7.80;;;3.60;;
58446;SDS011;44240;51.840;7.258;2024-01-10T05:08:26;4.97;;;2.60;;
58446;SDS011;44240;51.840;7.258;2024-01-10T05:10:53;5.60;;;3.58;;
58446;SDS011;44240;51.840;7.258;2024-01-10T05:13:19;9.95;;;2.78;;
58446;SDS011;44240;51.840;7.258;2024-01-10T05:15:46;6.95;;;3.00;;
58446;SDS011;44240;51.840;7.258;2024-01-10T05:18:13;8.63;;;3.20;;
58446;SDS011;44240;51.840;7.258;2024-01-10T05:20:41;7.53;;;4.15;;
58446;SDS011;44240;51.840;7.258;2024-01-10T05:23:08;6.68;;;3.22;;
58446;SDS011;44240;51.840;7.258;2024-01-10T05:25:35;7.57;;;3.80;;
58446;SDS011;44240;51.840;7.258;2024-01-10T05:28:02;6.95;;;3.42;;
58446;SDS011;44240;51.840;7.258;2024-01-10T05:30:29;7.35;;;3.47;;
58446;SDS011;44240;51.840;7.258;2024-01-10T05:32:56;9.07;;;3.60;;
58446;SDS011;44240;51.840;7.258;2024-01-10T05:35:22;7.70;;;2.97;;
58446;SDS011;44240;51.840;7.258;2024-01-10T05:37:49;6.38;;;2.95;;
58446;SDS011;44240;51.840;7.258;2024-01-10T05:40:16;5.93;;;2.75;;
58446;SDS011;44240;51.840;7.258;2024-01-10T05:42:45;12.35;;;3.65;;
58446;SDS011;44240;51.840;7.258;2024-01-10T05:45:12;7.45;;;3.10;;
58446;SDS011;44240;51.840;7.258;2024-01-10T05:47:39;6.32;;;3.10;;
58446;SDS011;44240;51.840;7.258;2024-01-10T05:50:06;6.28;;;3.83;;
58446;SDS011;44240;51.840;7.258;2024-01-10T05:52:33;10.10;;;3.47;;
58446;SDS011;44240;51.840;7.258;2024-01-10T05:55:00;9.27;;;3.65;;
58446;SDS011;44240;51.840;7.258;2024-01-10T05:57:28;8.23;;;3.72;;
58446;SDS011;44240;51.840;7.258;2024-01-10T05:59:56;9.80;;;4.13;;
58446;SDS011;44240;51.840;7.258;2024-01-10T06:02:23;6.18;;;3.42;;
58446;SDS011;44240;51.840;7.258;2024-01-10T06:04:50;6.75;;;3.63;;
58446;SDS011;44240;51.840;7.258;2024-01-10T06:07:17;8.85;;;4.38;;
58446;SDS011;44240;51.840;7.258;2024-01-10T06:09:44;8.07;;;3.58;;
58446;SDS011;44240;51.840;7.258;2024-01-10T06:12:11;7.63;;;4.05;;
58446;SDS011;44240;51.840;7.258;2024-01-10T06:14:38;7.25;;;3.78;;
58446;SDS011;44240;51.840;7.258;2024-01-10T06:17:05;6.30;;;3.75;;
58446;SDS011;44240;51.840;7.258;2024-01-10T06:19:32;8.95;;;3.80;;
58446;SDS011;44240;51.840;7.258;2024-01-10T06:21:59;7.13;;;3.92;;
58446;SDS011;44240;51.840;7.258;2024-01-10T06:24:26;10.88;;;4.50;;
58446;SDS011;44240;51.840;7.258;2024-01-10T06:26:52;6.85;;;3.70;;
58446;SDS011;44240;51.840;7.258;2024-01-10T06:29:19;10.82;;;4.53;;
58446;SDS011;44240;51.840;7.258;2024-01-10T06:31:46;6.32;;;4.10;;
58446;SDS011;44240;51.840;7.258;2024-01-10T06:34:14;10.32;;;3.40;;
58446;SDS011;44240;51.840;7.258;2024-01-10T06:36:41;7.95;;;3.83;;
58446;SDS011;44240;51.840;7.258;2024-01-10T06:39:09;8.77;;;4.30;;
58446;SDS011;44240;51.840;7.258;2024-01-10T06:41:39;8.73;;;4.00;;
58446;SDS011;44240;51.840;7.258;2024-01-10T06:44:06;10.07;;;4.28;;
58446;SDS011;44240;51.840;7.258;2024-01-10T06:46:33;10.15;;;3.70;;
58446;SDS011;44240;51.840;7.258;2024-01-10T06:49:00;7.15;;;4.03;;
58446;SDS011;44240;51.840;7.258;2024-01-10T06:51:27;7.80;;;3.72;;
58446;SDS011;44240;51.840;7.258;2024-01-10T06:53:54;8.80;;;4.47;;
58446;SDS011;44240;51.840;7.258;2024-01-10T06:56:29;9.25;;;4.78;;
58446;SDS011;44240;51.840;7.258;2024-01-10T06:58:57;8.77;;;4.18;;
58446;SDS011;44240;51.840;7.258;2024-01-10T07:01:24;10.38;;;4.13;;
58446;SDS011;44240;51.840;7.258;2024-01-10T07:03:52;9.95;;;4.50;;
58446;SDS011;44240;51.840;7.258;2024-01-10T07:06:19;12.10;;;5.10;;
58446;SDS011;44240;51.840;7.258;2024-01-10T07:08:47;9.95;;;4.43;;
58446;SDS011;44240;51.840;7.258;2024-01-10T07:11:16;9.20;;;4.90;;
58446;SDS011;44240;51.840;7.258;2024-01-10T07:13:46;12.25;;;4.93;;
58446;SDS011;44240;51.840;7.258;2024-01-10T07:16:13;9.23;;;4.68;;
58446;SDS011;44240;51.840;7.258;2024-01-10T07:18:43;10.02;;;4.28;;
58446;SDS011;44240;51.840;7.258;2024-01-10T07:21:12;7.72;;;4.20;;
58446;SDS011;44240;51.840;7.258;2024-01-10T07:23:38;8.52;;;4.18;;
58446;SDS011;44240;51.840;7.258;2024-01-10T07:26:07;10.93;;;4.32;;
58446;SDS011;44240;51.840;7.258;2024-01-10T07:28:34;11.10;;;5.40;;
58446;SDS011;44240;51.840;7.258;2024-01-10T07:31:01;9.65;;;4.72;;
58446;SDS011;44240;51.840;7.258;2024-01-10T07:33:28;5.57;;;3.58;;
58446;SDS011;44240;51.840;7.258;2024-01-10T07:35:58;11.07;;;4.75;;
58446;SDS011;44240;51.840;7.258;2024-01-10T07:38:26;8.48;;;3.78;;
58446;SDS011;44240;51.840;7.258;2024-01-10T07:40:53;9.52;;;4.93;;
58446;SDS011;44240;51.840;7.258;2024-01-10T07:43:20;10.13;;;4.53;;
58446;SDS011;44240;51.840;7.258;2024-01-10T07:45:46;8.70;;;3.83;;
58446;SDS011;44240;51.840;7.258;2024-01-10T07:48:13;9.93;;;5.00;;
58446;SDS011;44240;51.840;7.258;2024-01-10T07:50:40;10.80;;;4.53;;
58446;SDS011;44240;51.840;7.258;2024-01-10T07:53:07;11.68;;;4.35;;
58446;SDS011;44240;51.840;7.258;2024-01-10T07:55:34;11.25;;;5.07;;
58446;SDS011;44240;51.840;7.258;2024-01-10T07:58:01;10.82;;;5.07;;
58446;SDS011;44240;51.840;7.258;2024-01-10T08:00:28;11.00;;;4.95;;
58446;SDS011;44240;51.840;7.258;2024-01-10T08:02:56;11.20;;;5.10;;
58446;SDS011;44240;51.840;7.258;2024-01-10T08:05:24;10.35;;;5.53;;
58446;SDS011;44240;51.840;7.258;2024-01-10T08:07:51;11.20;;;5.00;;
58446;SDS011;44240;51.840;7.258;2024-01-10T08:10:18;14.05;;;6.28;;
58446;SDS011;44240;51.840;7.258;2024-01-10T08:12:45;10.32;;;4.78;;
58446;SDS011;44240;51.840;7.258;2024-01-10T08:15:11;9.40;;;4.95;;
58446;SDS011;44240;51.840;7.258;2024-01-10T08:17:38;10.98;;;4.57;;
58446;SDS011;44240;51.840;7.258;2024-01-10T08:20:06;12.52;;;5.47;;
58446;SDS011;44240;51.840;7.258;2024-01-10T08:22:34;9.93;;;4.57;;
58446;SDS011;44240;51.840;7.258;2024-01-10T08:25:01;9.70;;;5.40;;
58446;SDS011;44240;51.840;7.258;2024-01-10T08:27:29;9.23;;;4.70;;
58446;SDS011;44240;51.840;7.258;2024-01-10T08:29:56;13.02;;;5.88;;
58446;SDS011;44240;51.840;7.258;2024-01-10T08:32:22;7.22;;;4.53;;
58446;SDS011;44240;51.840;7.258;2024-01-10T08:34:49;9.88;;;5.65;;
58446;SDS011;44240;51.840;7.258;2024-01-10T08:37:17;12.27;;;5.18;;
58446;SDS011;44240;51.840;7.258;2024-01-10T08:39:43;11.70;;;5.65;;
58446;SDS011;44240;51.840;7.258;2024-01-10T08:42:10;12.32;;;5.35;;
58446;SDS011;44240;51.840;7.258;2024-01-10T08:44:37;14.77;;;5.85;;
58446;SDS011;44240;51.840;7.258;2024-01-10T08:47:04;8.48;;;4.63;;
58446;SDS011;44240;51.840;7.258;2024-01-10T08:49:31;12.32;;;5.82;;
58446;SDS011;44240;51.840;7.258;2024-01-10T08:51:58;8.55;;;4.82;;
58446;SDS011;44240;51.840;7.258;2024-01-10T08:54:24;13.60;;;6.68;;
58446;SDS011;44240;51.840;7.258;2024-01-10T08:56:51;10.25;;;4.90;;
58446;SDS011;44240;51.840;7.258;2024-01-10T08:59:18;13.35;;;6.10;;
58446;SDS011;44240;51.840;7.258;2024-01-10T09:01:45;11.00;;;5.38;;
58446;SDS011;44240;51.840;7.258;2024-01-10T09:04:11;11.68;;;5.45;;
58446;SDS011;44240;51.840;7.258;2024-01-10T09:06:38;12.45;;;5.38;;
58446;SDS011;44240;51.840;7.258;2024-01-10T09:09:05;15.32;;;6.30;;
58446;SDS011;44240;51.840;7.258;2024-01-10T09:11:32;11.30;;;5.28;;
58446;SDS011;44240;51.840;7.258;2024-01-10T09:14:05;12.45;;;6.50;;
58446;SDS011;44240;51.840;7.258;2024-01-10T09:16:32;12.82;;;6.72;;
58446;SDS011;44240;51.840;7.258;2024-01-10T09:18:58;15.88;;;6.55;;
58446;SDS011;44240;51.840;7.258;2024-01-10T09:21:26;11.15;;;5.93;;
58446;SDS011;44240;51.840;7.258;2024-01-10T09:23:53;11.43;;;5.80;;
58446;SDS011;44240;51.840;7.258;2024-01-10T09:26:20;10.88;;;5.28;;
58446;SDS011;44240;51.840;7.258;2024-01-10T09:28:47;12.60;;;5.50;;
58446;SDS011;44240;51.840;7.258;2024-01-10T09:31:14;11.25;;;6.80;;
58446;SDS011;44240;51.840;7.258;2024-01-10T09:33:40;14.13;;;6.18;;
58446;SDS011;44240;51.840;7.258;2024-01-10T09:36:07;12.80;;;6.07;;
58446;SDS011;44240;51.840;7.258;2024-01-10T09:38:35;14.00;;;6.60;;
58446;SDS011;44240;51.840;7.258;2024-01-10T09:41:03;10.93;;;6.20;;
58446;SDS011;44240;51.840;7.258;2024-01-10T09:43:31;13.73;;;6.32;;
58446;SDS011;44240;51.840;7.258;2024-01-10T09:46:01;16.55;;;7.05;;
58446;SDS011;44240;51.840;7.258;2024-01-10T09:48:31;12.73;;;6.55;;
58446;SDS011;44240;51.840;7.258;2024-01-10T09:50:59;12.32;;;5.93;;
58446;SDS011;44240;51.840;7.258;2024-01-10T09:53:26;14.00;;;5.93;;
58446;SDS011;44240;51.840;7.258;2024-01-10T09:55:53;14.82;;;6.38;;
58446;SDS011;44240;51.840;7.258;2024-01-10T09:58:23;14.48;;;7.47;;
58446;SDS011;44240;51.840;7.258;2024-01-10T10:00:51;14.90;;;5.95;;
58446;SDS011;44240;51.840;7.258;2024-01-10T10:03:18;12.60;;;5.80;;
58446;SDS011;44240;51.840;7.258;2024-01-10T10:05:45;14.50;;;6.82;;
58446;SDS011;44240;51.840;7.258;2024-01-10T10:08:13;13.18;;;6.03;;
58446;SDS011;44240;51.840;7.258;2024-01-10T10:10:49;9.77;;;5.75;;
58446;SDS011;44240;51.840;7.258;2024-01-10T10:13:26;13.43;;;7.07;;
58446;SDS011;44240;51.840;7.258;2024-01-10T10:16:00;11.43;;;5.68;;
58446;SDS011;44240;51.840;7.258;2024-01-10T10:18:28;14.25;;;6.30;;
58446;SDS011;44240;51.840;7.258;2024-01-10T10:21:09;15.65;;;6.13;;
58446;SDS011;44240;51.840;7.258;2024-01-10T10:23:38;13.10;;;6.18;;
58446;SDS011;44240;51.840;7.258;2024-01-10T10:26:09;11.85;;;5.00;;
58446;SDS011;44240;51.840;7.258;2024-01-10T10:28:37;12.95;;;6.28;;
58446;SDS011;44240;51.840;7.258;2024-01-10T10:31:03;16.77;;;6.78;;
58446;SDS011;44240;51.840;7.258;2024-01-10T10:33:32;15.35;;;6.57;;
58446;SDS011;44240;51.840;7.258;2024-01-10T10:35:59;13.77;;;7.00;;
58446;SDS011;44240;51.840;7.258;2024-01-10T10:38:26;14.55;;;6.97;;
58446;SDS011;44240;51.840;7.258;2024-01-10T10:40:53;13.35;;;5.82;;
58446;SDS011;44240;51.840;7.258;2024-01-10T10:43:20;16.65;;;6.95;;
58446;SDS011;44240;51.840;7.258;2024-01-10T10:45:48;12.70;;;6.30;;
58446;SDS011;44240;51.840;7.258;2024-01-10T10:48:16;14.10;;;7.03;;
58446;SDS011;44240;51.840;7.258;2024-01-10T10:51:03;13.90;;;6.00;;
58446;SDS011;44240;51.840;7.258;2024-01-10T10:53:36;12.25;;;4.97;;
58446;SDS011;44240;51.840;7.258;2024-01-10T10:56:09;11.73;;;5.45;;
58446;SDS011;44240;51.840;7.258;2024-01-10T10:58:39;12.98;;;5.93;;
58446;SDS011;44240;51.840;7.258;2024-01-10T11:01:08;14.05;;;5.25;;
58446;SDS011;44240;51.840;7.258;2024-01-10T11:03:38;12.25;;;6.20;;
58446;SDS011;44240;51.840;7.258;2024-01-10T11:06:06;16.33;;;7.00;;
58446;SDS011;44240;51.840;7.258;2024-01-10T11:08:38;13.73;;;7.03;;
58446;SDS011;44240;51.840;7.258;2024-01-10T11:14:16;12.57;;;6.18;;
58446;SDS011;44240;51.840;7.258;2024-01-10T11:22:36;12.75;;;5.97;;
58446;SDS011;44240;51.840;7.258;2024-01-10T11:25:07;12.65;;;6.03;;
58446;SDS011;44240;51.840;7.258;2024-01-10T11:27:34;13.18;;;6.80;;
58446;SDS011;44240;51.840;7.258;2024-01-10T11:30:03;15.05;;;6.68;;
58446;SDS011;44240;51.840;7.258;2024-01-10T11:32:32;13.93;;;6.25;;
58446;SDS011;44240;51.840;7.258;2024-01-10T11:35:10;11.98;;;6.45;;
58446;SDS011;44240;51.840;7.258;2024-01-10T11:37:45;10.65;;;5.85;;
58446;SDS011;44240;51.840;7.258;2024-01-10T11:40:16;13.05;;;5.32;;
58446;SDS011;44240;51.840;7.258;2024-01-10T11:43:12;14.77;;;6.38;;
58446;SDS011;44240;51.840;7.258;2024-01-10T11:45:49;10.32;;;5.47;;
58446;SDS011;44240;51.840;7.258;2024-01-10T11:48:26;9.50;;;4.63;;
58446;SDS011;44240;51.840;7.258;2024-01-10T11:50:54;11.75;;;5.95;;
58446;SDS011;44240;51.840;7.258;2024-01-10T11:53:55;10.82;;;5.90;;
58446;SDS011;44240;51.840;7.258;2024-01-10T11:56:16;12.30;;;6.22;;
58446;SDS011;44240;51.840;7.258;2024-01-10T11:59:06;11.52;;;5.68;;
58446;SDS011;44240;51.840;7.258;2024-01-10T12:01:38;14.50;;;5.57;;
58446;SDS011;44240;51.840;7.258;2024-01-10T12:04:06;10.98;;;5.63;;
58446;SDS011;44240;51.840;7.258;2024-01-10T12:06:45;10.27;;;5.53;;
58446;SDS011;44240;51.840;7.258;2024-01-10T12:09:13;13.40;;;6.43;;
58446;SDS011;44240;51.840;7.258;2024-01-10T12:11:40;14.10;;;6.50;;
58446;SDS011;44240;51.840;7.258;2024-01-10T12:14:08;11.38;;;6.00;;
58446;SDS011;44240;51.840;7.258;2024-01-10T12:16:35;12.85;;;5.93;;
58446;SDS011;44240;51.840;7.258;2024-01-10T12:19:02;13.93;;;6.28;;
58446;SDS011;44240;51.840;7.258;2024-01-10T12:21:29;12.10;;;6.10;;
58446;SDS011;44240;51.840;7.258;2024-01-10T12:23:56;13.50;;;6.38;;
58446;SDS011;44240;51.840;7.258;2024-01-10T12:26:23;8.43;;;5.32;;
58446;SDS011;44240;51.840;7.258;2024-01-10T12:28:54;12.25;;;5.80;;
58446;SDS011;44240;51.840;7.258;2024-01-10T12:31:22;14.20;;;6.65;;
58446;SDS011;44240;51.840;7.258;2024-01-10T12:33:49;12.18;;;5.70;;
58446;SDS011;44240;51.840;7.258;2024-01-10T12:36:17;13.43;;;5.82;;
58446;SDS011;44240;51.840;7.258;2024-01-10T12:38:44;12.27;;;5.75;;
58446;SDS011;44240;51.840;7.258;2024-01-10T12:41:11;11.27;;;5.93;;
58446;SDS011;44240;51.840;7.258;2024-01-10T12:43:40;17.92;;;7.45;;
58446;SDS011;44240;51.840;7.258;2024-01-10T12:46:08;11.82;;;5.80;;
58446;SDS011;44240;51.840;7.258;2024-01-10T12:48:39;14.00;;;6.25;;
58446;SDS011;44240;51.840;7.258;2024-01-10T12:51:09;13.20;;;5.72;;
58446;SDS011;44240;51.840;7.258;2024-01-10T12:56:06;13.38;;;5.82;;
58446;SDS011;44240;51.840;7.258;2024-01-10T12:58:34;9.38;;;4.90;;
58446;SDS011;44240;51.840;7.258;2024-01-10T13:01:02;10.55;;;5.65;;
58446;SDS011;44240;51.840;7.258;2024-01-10T13:03:29;10.90;;;5.82;;
58446;SDS011;44240;51.840;7.258;2024-01-10T13:05:57;12.48;;;6.15;;
58446;SDS011;44240;51.840;7.258;2024-01-10T13:08:24;11.68;;;6.00;;
58446;SDS011;44240;51.840;7.258;2024-01-10T13:10:51;9.05;;;4.65;;
58446;SDS011;44240;51.840;7.258;2024-01-10T13:13:18;13.30;;;6.82;;
58446;SDS011;44240;51.840;7.258;2024-01-10T13:15:48;11.35;;;5.78;;
58446;SDS011;44240;51.840;7.258;2024-01-10T13:18:15;10.63;;;5.90;;
58446;SDS011;44240;51.840;7.258;2024-01-10T13:20:43;11.45;;;6.07;;
58446;SDS011;44240;51.840;7.258;2024-01-10T13:23:10;14.07;;;6.72;;
58446;SDS011;44240;51.840;7.258;2024-01-10T13:25:37;12.23;;;5.63;;
58446;SDS011;44240;51.840;7.258;2024-01-10T13:28:04;11.40;;;5.57;;
58446;SDS011;44240;51.840;7.258;2024-01-10T13:30:31;12.05;;;5.88;;
58446;SDS011;44240;51.840;7.258;2024-01-10T13:32:58;16.98;;;6.20;;
58446;SDS011;44240;51.840;7.258;2024-01-10T13:35:26;10.55;;;5.80;;
58446;SDS011;44240;51.840;7.258;2024-01-10T13:37:53;11.45;;;5.75;;
58446;SDS011;44240;51.840;7.258;2024-01-10T13:40:20;9.95;;;6.35;;
58446;SDS011;44240;51.840;7.258;2024-01-10T13:42:50;12.48;;;6.93;;
58446;SDS011;44240;51.840;7.258;2024-01-10T13:45:17;12.82;;;6.30;;
58446;SDS011;44240;51.840;7.258;2024-01-10T13:47:44;14.10;;;6.30;;
58446;SDS011;44240;51.840;7.258;2024-01-10T13:50:11;12.85;;;7.18;;
58446;SDS011;44240;51.840;7.258;2024-01-10T13:52:38;9.77;;;5.57;;
58446;SDS011;44240;51.840;7.258;2024-01-10T13:55:05;12.45;;;6.38;;
58446;SDS011;44240;51.840;7.258;2024-01-10T13:57:32;14.38;;;6.68;;
58446;SDS011;44240;51.840;7.258;2024-01-10T13:59:59;12.35;;;6.20;;
58446;SDS011;44240;51.840;7.258;2024-01-10T14:02:37;13.00;;;6.85;;
58446;SDS011;44240;51.840;7.258;2024-01-10T14:05:04;11.93;;;6.50;;
58446;SDS011;44240;51.840;7.258;2024-01-10T14:07:32;13.75;;;6.82;;
58446;SDS011;44240;51.840;7.258;2024-01-10T14:17:02;14.02;;;5.82;;
58446;SDS011;44240;51.840;7.258;2024-01-10T14:19:30;13.77;;;6.28;;
58446;SDS011;44240;51.840;7.258;2024-01-10T14:21:58;13.30;;;6.85;;
58446;SDS011;44240;51.840;7.258;2024-01-10T14:24:25;11.13;;;6.13;;
58446;SDS011;44240;51.840;7.258;2024-01-10T14:26:53;13.88;;;6.43;;
58446;SDS011;44240;51.840;7.258;2024-01-10T14:29:20;13.05;;;6.32;;
58446;SDS011;44240;51.840;7.258;2024-01-10T14:31:49;14.48;;;7.25;;
58446;SDS011;44240;51.840;7.258;2024-01-10T14:34:35;13.95;;;6.55;;
58446;SDS011;44240;51.840;7.258;2024-01-10T14:37:02;12.57;;;6.72;;
58446;SDS011;44240;51.840;7.258;2024-01-10T14:39:30;15.23;;;7.15;;
58446;SDS011;44240;51.840;7.258;2024-01-10T14:41:59;11.98;;;6.75;;
58446;SDS011;44240;51.840;7.258;2024-01-10T14:44:26;12.35;;;6.45;;
58446;SDS011;44240;51.840;7.258;2024-01-10T14:46:53;15.55;;;7.32;;
58446;SDS011;44240;51.840;7.258;2024-01-10T14:49:31;14.65;;;6.93;;
58446;SDS011;44240;51.840;7.258;2024-01-10T14:51:58;12.48;;;6.57;;
58446;SDS011;44240;51.840;7.258;2024-01-10T14:54:25;12.45;;;7.20;;
58446;SDS011;44240;51.840;7.258;2024-01-10T14:56:52;13.15;;;6.32;;
58446;SDS011;44240;51.840;7.258;2024-01-10T14:59:19;16.73;;;7.43;;
58446;SDS011;44240;51.840;7.258;2024-01-10T15:02:02;13.05;;;7.47;;
58446;SDS011;44240;51.840;7.258;2024-01-10T15:04:29;14.07;;;7.30;;